This is the latest recevied weather packets stored in our database for station/object N3MFL. If no packets are shown the sender has not sent any weather packets the latest 10 day(s).
| Time | Temp. | Humidity | Pressure | Rain* | Wind** | Luminosity | Snow |
|---|---|---|---|---|---|---|---|
| 1778152835 | 9.44° C | 96% | 1009.1 hPa | 1.27 mm | - | 18 W/m² | - |
| 1778152532 | 9.44° C | 96% | 1009.6 hPa | 0 mm | - | 13 W/m² | - |
| 1778152229 | 9.44° C | 96% | 1009.4 hPa | 1.78 mm | - | 28 W/m² | - |
| 1778151925 | 9.44° C | 96% | 1009 hPa | 3.05 mm | - | 21 W/m² | - |
| 1778151622 | 9.44° C | 96% | 1009.1 hPa | 3.05 mm | - | 14 W/m² | - |
| 1778151319 | 8.89° C | 96% | 1009.2 hPa | 1.78 mm | - | 22 W/m² | - |
| 1778151015 | 8.89° C | 96% | 1009.3 hPa | 0 mm | - | 11 W/m² | - |
| 1778150713 | 9.44° C | 96% | 1008.8 hPa | 0 mm | - | 12 W/m² | - |
| 1778150408 | 9.44° C | 96% | 1008.6 hPa | 0 mm | - | 30 W/m² | - |
| 1778150105 | 8.89° C | 96% | 1008.5 hPa | 0 mm | - | 30 W/m² | - |
| 1778149801 | 8.89° C | 96% | 1008.4 hPa | 1.27 mm | - | 11 W/m² | - |
| 1778149498 | 8.89° C | 96% | 1008.3 hPa | 1.27 mm | - | 13 W/m² | - |
| 1778149194 | 8.89° C | 96% | 1008.8 hPa | 1.27 mm | - | 6 W/m² | - |
| 1778148889 | 9.44° C | 96% | 1008.9 hPa | 0 mm | - | 6 W/m² | - |
| 1778148586 | 9.44° C | 96% | 1008.9 hPa | 0 mm | - | 5 W/m² | - |
| 1778148284 | 9.44° C | 96% | 1009 hPa | 0 mm | - | 3 W/m² | - |
| 1778147982 | 9.44° C | 96% | 1009.2 hPa | 0 mm | - | 3 W/m² | - |
| 1778147679 | 9.44° C | 96% | 1008.9 hPa | 1.78 mm | - | 2 W/m² | - |
| 1778147376 | 9.44° C | 96% | 1008.7 hPa | 1.78 mm | - | 1 W/m² | - |
| 1778147072 | 9.44° C | 95% | 1008.6 hPa | 1.27 mm | - | 1 W/m² | - |
| 1778146769 | 9.44° C | 95% | 1008.5 hPa | 0 mm | - | 1 W/m² | - |
| 1778146467 | 9.44° C | 95% | 1008.5 hPa | 0 mm | - | 0 W/m² | - |
| 1778146166 | 9.44° C | 95% | 1008.5 hPa | 0 mm | - | 0 W/m² | - |
| 1778145861 | 10° C | 95% | 1008.6 hPa | 0 mm | - | 0 W/m² | - |
| 1778145558 | 10° C | 95% | 1008.4 hPa | 1.78 mm | - | 0 W/m² | - |
* Rain latest hour (hover to see other rain measurements)
** Current wind speed in m/s (hover to see current wind gust speed)